Columbus, MT (59019)

1:08 AM MDT on October 24, 2014 (GMT -0600)
W. 4th Ave N. | Change Station
CLOSE
Current Station
Personal Weather Station
Location: Columbus, MT
Elevation: 3625 ft
Nearby Weather Stations

Elev 3625 ft 45.64 °N, 109.26 °W | Updated 8 minutes ago

Mostly Cloudy
Mostly Cloudy
49.6 °F
Feels Like 50 °F
N
1.0
Wind Variable Wind from West
Gusts 4.0 mph

Today
High -- | Low -- °F
--% Chance of Precip.
Yesterday
High -- | Low -- °F
Precip. -- in
7:45 AM 6:15 PM
New Moon, 0% visible
Pressure 29.82 in
Visibility 10.0 miles
Clouds Mostly Cloudy 10000 ft
Windchill 50 °F
Dew Point 33 °F
Humidity 54%
Rainfall 0.00 in
Snow Depth Not available.
UV 0 out of 12
Pollen 2.70 out of 12
Air Quality Not available.
Flu Activity No Activity
METAR KBIL 240653Z 25009KT 10SM BKN100 16/M02 A2989 RMK AO2 SLP098 T01611017 402110072

More Conditions Fewer Conditions

Pressure 29.82 in
Visibility 10.0 miles
Clouds Mostly Cloudy 10000 ft
Windchill 50 °F
Dew Point 33 °F
Humidity 54%
Rainfall 0.00 in
Snow Depth Not available.
UV 0 out of 12
Pollen 2.70 out of 12
Air Quality Not available.
Flu Activity No Activity
METAR KBIL 240653Z 25009KT 10SM BKN100 16/M02 A2989 RMK AO2 SLP098 T01611017 402110072

More Conditions Fewer Conditions

10-Day Weather Forecast

Almanac

Astronomy

Oct. 24, 2014 Rise Set
Actual Time 7:45 AM MDT 6:15 PM MDT
Civil Twilight 7:15 AM MDT 6:46 PM MDT
Nautical Twilight 6:40 AM MDT 7:20 PM MDT
Astronomical Twilight 6:06 AM MDT 7:55 PM MDT
Moon 8:29 AM MDT 6:55 PM MDT
Length of Visible Light 11h 31m
Length of Day
10h 30m
Tomorrow will be 3m 0s shorter.
New Moon, 0% of the Moon is Illuminated
Today
New Moon
Oct 30
First Quarter
Nov 6
Full
Nov 14
Last Quarter
Nov 22
New

Today's Extremes

State Highs State Lows

Community

WunderPhotos

Upload Photos

1,764,510 photos uploaded!

WunderBlogs® & News

Nearby

Snow Depth

Station Depth Elevation
Burnt Mountain 0 in 5880 ft
Placer Basin 0 in 8830 ft
Fisher Creek 1 in 9100 ft
Box Canyon 0 in 6700 ft
Monument Peak 0 in 8850 ft

Earthquake Activity

City Distance Mag. Time & Date
No recent earthquake activity has been reported nearby.
Minimum magnitude displayed is 2.5.

Coastal Water Temperatures

Place Temperature
No Stations Reporting

Nearby Weather Stations